Terminal Aerodrome Forecast
Issued by NWS

Home | Current Version | Previous Version | Text Only | Print | Product List | Glossary On
Versions: 1 2 3 4 5 6 7 8 9 10 11 12 13 14 15 16 17 18 19 20 21 22 23 24 25 26 27 28 29 30 31 32
000
FTUS42 KMFL 230535
TAFMIA
TAF
KMIA 230535Z 2306/2406 26006KT P6SM FEW040 BKN250
     FM231900 16008KT P6SM SCT040
     FM240200 VRB04KT P6SM FEW040 FEW250=

USA.gov is the U.S. government's official web portal to all federal, state and local government web resources and services.